JST721 YSSY-YMHB
Flight info
| Callsign | JST721 |
|---|---|
| Flight time | 1h 36m |
| Altitude | 34000 |
| Route | WOL H20 MOTRA/N0377F200 W407 TASUM |
| Aircraft | A320/M-SDE3FGHIRWY/LB1 |
Departure
| Time | 2026-04-20 01:22 |
|---|---|
| Airport | Sydney Kingsford Smith International Airport (YSSY) |
Arrival
| Time | 2026-04-20 02:58 |
|---|---|
| Airport | Hobart International Airport (YMHB) |
| Time | Latitude | Longitude | Altitude | Speed | Heading |
|---|---|---|---|---|---|
| 2026-04-20 01:08 | -33.93524 | 151.17766 | 30 ft | 0 kts | 279° |
| 2026-04-20 01:13 | -33.93526 | 151.17782 | 30 ft | 3 kts | 280° |
| 2026-04-20 01:14 | -33.93530 | 151.17806 | 30 ft | 3 kts | 275° |
| 2026-04-20 01:14 | -33.93530 | 151.17829 | 30 ft | 3 kts | 240° |
| 2026-04-20 01:14 | -33.93523 | 151.17839 | 30 ft | 1 kts | 190° |
| 2026-04-20 01:14 | -33.93532 | 151.17837 | 30 ft | 3 kts | 190° |
| 2026-04-20 01:15 | -33.93553 | 151.17833 | 30 ft | 3 kts | 190° |
| 2026-04-20 01:15 | -33.93573 | 151.17829 | 30 ft | 3 kts | 190° |
| 2026-04-20 01:15 | -33.93593 | 151.17824 | 30 ft | 3 kts | 190° |
| 2026-04-20 01:15 | -33.93610 | 151.17821 | 30 ft | 2 kts | 190° |
| 2026-04-20 01:16 | -33.93613 | 151.17820 | 30 ft | 0 kts | 190° |
| 2026-04-20 01:18 | -33.93623 | 151.17818 | 30 ft | 2 kts | 190° |
| 2026-04-20 01:18 | -33.93630 | 151.17816 | 30 ft | 1 kts | 190° |
| 2026-04-20 01:18 | -33.93637 | 151.17815 | 30 ft | 3 kts | 191° |
| 2026-04-20 01:18 | -33.93678 | 151.17803 | 30 ft | 7 kts | 194° |
| 2026-04-20 01:19 | -33.93735 | 151.17785 | 30 ft | 9 kts | 195° |
| 2026-04-20 01:19 | -33.93806 | 151.17763 | 30 ft | 12 kts | 194° |
| 2026-04-20 01:19 | -33.93860 | 151.17691 | 29 ft | 13 kts | 250° |
| 2026-04-20 01:19 | -33.93837 | 151.17594 | 29 ft | 14 kts | 339° |
| 2026-04-20 01:20 | -33.93735 | 151.17567 | 29 ft | 16 kts | 349° |
| 2026-04-20 01:20 | -33.93650 | 151.17519 | 28 ft | 14 kts | 301° |
| 2026-04-20 01:20 | -33.93657 | 151.17416 | 29 ft | 13 kts | 258° |
| 2026-04-20 01:20 | -33.93676 | 151.17354 | 28 ft | 6 kts | 213° |
| 2026-04-20 01:21 | -33.93721 | 151.17364 | 27 ft | 9 kts | 169° |
| 2026-04-20 01:21 | -33.93941 | 151.17419 | 27 ft | 64 kts | 167° |
| 2026-04-20 01:21 | -33.94568 | 151.17578 | 30 ft | 117 kts | 168° |
| 2026-04-20 01:21 | -33.95498 | 151.17820 | 169 ft | 145 kts | 168° |
| 2026-04-20 01:22 | -33.96472 | 151.18021 | 811 ft | 145 kts | 176° |
| 2026-04-20 01:22 | -33.97506 | 151.17984 | 1307 ft | 151 kts | 181° |
| 2026-04-20 01:22 | -33.98560 | 151.17870 | 1816 ft | 157 kts | 183° |
| 2026-04-20 01:22 | -33.99731 | 151.17748 | 2107 ft | 180 kts | 182° |
| 2026-04-20 01:23 | -34.01069 | 151.17620 | 2343 ft | 207 kts | 182° |
| 2026-04-20 01:23 | -34.02597 | 151.17547 | 2659 ft | 232 kts | 175° |
| 2026-04-20 01:23 | -34.04187 | 151.18008 | 3345 ft | 242 kts | 165° |
| 2026-04-20 01:23 | -34.05822 | 151.18566 | 4203 ft | 245 kts | 165° |
| 2026-04-20 01:24 | -34.07478 | 151.19118 | 5043 ft | 249 kts | 166° |
| 2026-04-20 01:24 | -34.09166 | 151.19676 | 5858 ft | 253 kts | 166° |
| 2026-04-20 01:24 | -34.10873 | 151.20242 | 6680 ft | 257 kts | 167° |
| 2026-04-20 01:24 | -34.12612 | 151.20817 | 7454 ft | 260 kts | 167° |
| 2026-04-20 01:25 | -34.14365 | 151.21398 | 8221 ft | 263 kts | 166° |
| 2026-04-20 01:25 | -34.16143 | 151.21985 | 8977 ft | 267 kts | 166° |
| 2026-04-20 01:25 | -34.17964 | 151.22455 | 9714 ft | 269 kts | 178° |
| 2026-04-20 01:25 | -34.19823 | 151.22212 | 10419 ft | 272 kts | 197° |
| 2026-04-20 01:26 | -34.21537 | 151.21181 | 10904 ft | 285 kts | 216° |
| 2026-04-20 01:26 | -34.22957 | 151.19409 | 11285 ft | 300 kts | 227° |
| 2026-04-20 01:26 | -34.24322 | 151.17463 | 11893 ft | 305 kts | 227° |
| 2026-04-20 01:26 | -34.25708 | 151.15503 | 12549 ft | 308 kts | 227° |
| 2026-04-20 01:27 | -34.27095 | 151.13552 | 13210 ft | 311 kts | 227° |
| 2026-04-20 01:27 | -34.28515 | 151.11552 | 13863 ft | 315 kts | 227° |
| 2026-04-20 01:27 | -34.29952 | 151.09529 | 14464 ft | 318 kts | 227° |
| 2026-04-20 01:27 | -34.31404 | 151.07486 | 15049 ft | 321 kts | 227° |
| 2026-04-20 01:28 | -34.32867 | 151.05422 | 15629 ft | 324 kts | 227° |
| 2026-04-20 01:28 | -34.34342 | 151.03338 | 16213 ft | 327 kts | 227° |
| 2026-04-20 01:28 | -34.35828 | 151.01239 | 16789 ft | 330 kts | 227° |
| 2026-04-20 01:28 | -34.37356 | 150.99158 | 17365 ft | 331 kts | 222° |
| 2026-04-20 01:29 | -34.39094 | 150.97231 | 17572 ft | 346 kts | 220° |
| 2026-04-20 01:29 | -34.40924 | 150.95248 | 17813 ft | 358 kts | 220° |
| 2026-04-20 01:29 | -34.42776 | 150.93248 | 18301 ft | 363 kts | 220° |
| 2026-04-20 01:29 | -34.44670 | 150.91204 | 18813 ft | 366 kts | 220° |
| 2026-04-20 01:30 | -34.46578 | 150.89137 | 19333 ft | 369 kts | 220° |
| 2026-04-20 01:30 | -34.48500 | 150.87051 | 19871 ft | 371 kts | 220° |
| 2026-04-20 01:30 | -34.50430 | 150.84953 | 20427 ft | 373 kts | 220° |
| 2026-04-20 01:30 | -34.52368 | 150.82842 | 20970 ft | 376 kts | 219° |
| 2026-04-20 01:31 | -34.54316 | 150.80722 | 21496 ft | 378 kts | 219° |
| 2026-04-20 01:31 | -34.56390 | 150.78765 | 22008 ft | 378 kts | 211° |
| 2026-04-20 01:31 | -34.58680 | 150.77189 | 22496 ft | 379 kts | 207° |
| 2026-04-20 01:31 | -34.61002 | 150.75655 | 22976 ft | 381 kts | 207° |
| 2026-04-20 01:32 | -34.63331 | 150.74112 | 23467 ft | 383 kts | 207° |
| 2026-04-20 01:32 | -34.64891 | 150.73078 | 23799 ft | 384 kts | 207° |
| 2026-04-20 01:32 | -34.68011 | 150.71015 | 24351 ft | 386 kts | 206° |
| 2026-04-20 01:32 | -34.70376 | 150.69452 | 24750 ft | 388 kts | 206° |
| 2026-04-20 01:33 | -34.71979 | 150.68393 | 24999 ft | 389 kts | 206° |
| 2026-04-20 01:33 | -34.74361 | 150.66815 | 25389 ft | 390 kts | 206° |
| 2026-04-20 01:33 | -34.76719 | 150.65250 | 25777 ft | 391 kts | 206° |
| 2026-04-20 01:33 | -34.79113 | 150.63658 | 26158 ft | 393 kts | 206° |
| 2026-04-20 01:34 | -34.81520 | 150.62054 | 26537 ft | 394 kts | 206° |
| 2026-04-20 01:34 | -34.83933 | 150.60449 | 26913 ft | 395 kts | 206° |
| 2026-04-20 01:34 | -34.86352 | 150.58839 | 27274 ft | 397 kts | 206° |
| 2026-04-20 01:34 | -34.88778 | 150.57218 | 27638 ft | 398 kts | 206° |
| 2026-04-20 01:35 | -34.91219 | 150.55588 | 27989 ft | 400 kts | 206° |
| 2026-04-20 01:35 | -34.93668 | 150.53965 | 28343 ft | 401 kts | 204° |
| 2026-04-20 01:35 | -34.96244 | 150.52682 | 28684 ft | 400 kts | 195° |
| 2026-04-20 01:35 | -34.98949 | 150.51838 | 29029 ft | 401 kts | 192° |
| 2026-04-20 01:36 | -35.01662 | 150.51043 | 29428 ft | 400 kts | 192° |
| 2026-04-20 01:36 | -35.04367 | 150.50246 | 29936 ft | 398 kts | 192° |
| 2026-04-20 01:36 | -35.07017 | 150.49461 | 30442 ft | 396 kts | 192° |
| 2026-04-20 01:36 | -35.09691 | 150.48665 | 30878 ft | 394 kts | 192° |
| 2026-04-20 01:37 | -35.12351 | 150.47871 | 31310 ft | 392 kts | 192° |
| 2026-04-20 01:37 | -35.14999 | 150.47078 | 31727 ft | 390 kts | 192° |
| 2026-04-20 01:37 | -35.17634 | 150.46285 | 32146 ft | 389 kts | 192° |
| 2026-04-20 01:37 | -35.20254 | 150.45500 | 32585 ft | 387 kts | 192° |
| 2026-04-20 01:38 | -35.22867 | 150.44721 | 33025 ft | 385 kts | 192° |
| 2026-04-20 01:38 | -35.25465 | 150.43949 | 33455 ft | 383 kts | 192° |
| 2026-04-20 01:38 | -35.28057 | 150.43180 | 33892 ft | 382 kts | 192° |
| 2026-04-20 01:38 | -35.30636 | 150.42415 | 34267 ft | 381 kts | 192° |
| 2026-04-20 01:39 | -35.35835 | 150.40863 | 34338 ft | 389 kts | 192° |
| 2026-04-20 01:39 | -35.41075 | 150.39287 | 34339 ft | 390 kts | 192° |
| 2026-04-20 01:40 | -35.46354 | 150.37693 | 34340 ft | 391 kts | 192° |
| 2026-04-20 01:40 | -35.51647 | 150.36101 | 34339 ft | 391 kts | 192° |
| 2026-04-20 01:41 | -35.56937 | 150.34514 | 34339 ft | 391 kts | 192° |
| 2026-04-20 01:41 | -35.62228 | 150.32925 | 34341 ft | 391 kts | 192° |
| 2026-04-20 01:42 | -35.67519 | 150.31328 | 34347 ft | 391 kts | 192° |
| 2026-04-20 01:42 | -35.72771 | 150.29738 | 34357 ft | 391 kts | 192° |
| 2026-04-20 01:43 | -35.78068 | 150.28134 | 34357 ft | 391 kts | 192° |
| 2026-04-20 01:43 | -35.83361 | 150.26531 | 34350 ft | 392 kts | 192° |
| 2026-04-20 01:44 | -35.88660 | 150.24928 | 34357 ft | 392 kts | 192° |
| 2026-04-20 01:44 | -35.93963 | 150.23312 | 34358 ft | 392 kts | 192° |
| 2026-04-20 01:45 | -35.99226 | 150.21708 | 34363 ft | 392 kts | 192° |
| 2026-04-20 01:45 | -36.04524 | 150.20096 | 34359 ft | 392 kts | 192° |
| 2026-04-20 01:46 | -36.09821 | 150.18482 | 34355 ft | 392 kts | 192° |
| 2026-04-20 01:46 | -36.15119 | 150.16868 | 34356 ft | 392 kts | 192° |
| 2026-04-20 01:47 | -36.20417 | 150.15252 | 34354 ft | 392 kts | 192° |
| 2026-04-20 01:47 | -36.25719 | 150.13622 | 34358 ft | 392 kts | 192° |
| 2026-04-20 01:48 | -36.30982 | 150.12000 | 34359 ft | 392 kts | 192° |
| 2026-04-20 01:48 | -36.36280 | 150.10372 | 34358 ft | 392 kts | 192° |
| 2026-04-20 01:49 | -36.41592 | 150.08746 | 34364 ft | 392 kts | 192° |
| 2026-04-20 01:49 | -36.46890 | 150.07120 | 34364 ft | 392 kts | 192° |
| 2026-04-20 01:50 | -36.52201 | 150.05486 | 34365 ft | 393 kts | 192° |
| 2026-04-20 01:50 | -36.57507 | 150.03845 | 34359 ft | 393 kts | 192° |
| 2026-04-20 01:51 | -36.62779 | 150.02205 | 34361 ft | 393 kts | 192° |
| 2026-04-20 01:51 | -36.68088 | 150.00560 | 34354 ft | 393 kts | 192° |
| 2026-04-20 01:52 | -36.73396 | 149.98913 | 34364 ft | 393 kts | 192° |
| 2026-04-20 01:52 | -36.78699 | 149.97270 | 34367 ft | 393 kts | 192° |
| 2026-04-20 01:53 | -36.84006 | 149.95617 | 34366 ft | 393 kts | 192° |
| 2026-04-20 01:53 | -36.89315 | 149.93963 | 34360 ft | 393 kts | 192° |
| 2026-04-20 01:54 | -36.94623 | 149.92304 | 34361 ft | 393 kts | 192° |
| 2026-04-20 01:54 | -36.99894 | 149.90652 | 34359 ft | 392 kts | 192° |
| 2026-04-20 01:55 | -37.05191 | 149.88988 | 34358 ft | 392 kts | 192° |
| 2026-04-20 01:55 | -37.10492 | 149.87333 | 34366 ft | 392 kts | 192° |
| 2026-04-20 01:56 | -37.15790 | 149.85687 | 34355 ft | 392 kts | 192° |
| 2026-04-20 01:56 | -37.21091 | 149.84023 | 34358 ft | 392 kts | 193° |
| 2026-04-20 01:57 | -37.26389 | 149.82353 | 34358 ft | 393 kts | 192° |
| 2026-04-20 01:57 | -37.31694 | 149.80684 | 34362 ft | 393 kts | 193° |
| 2026-04-20 01:58 | -37.36969 | 149.79014 | 34366 ft | 393 kts | 193° |
| 2026-04-20 01:58 | -37.42277 | 149.77328 | 34365 ft | 393 kts | 193° |
| 2026-04-20 01:59 | -37.47587 | 149.75647 | 34374 ft | 393 kts | 193° |
| 2026-04-20 01:59 | -37.52912 | 149.73964 | 34377 ft | 393 kts | 193° |
| 2026-04-20 02:00 | -37.58224 | 149.72282 | 34369 ft | 393 kts | 193° |
| 2026-04-20 02:00 | -37.63518 | 149.70506 | 34374 ft | 393 kts | 194° |
| 2026-04-20 02:01 | -37.68771 | 149.68560 | 34359 ft | 393 kts | 195° |
| 2026-04-20 02:01 | -37.73983 | 149.66603 | 34371 ft | 393 kts | 195° |
| 2026-04-20 02:02 | -37.79240 | 149.64669 | 34361 ft | 393 kts | 194° |
| 2026-04-20 02:02 | -37.84507 | 149.62749 | 34357 ft | 393 kts | 194° |
| 2026-04-20 02:03 | -37.89771 | 149.60822 | 34365 ft | 393 kts | 194° |
| 2026-04-20 02:03 | -37.95027 | 149.58896 | 34366 ft | 393 kts | 194° |
| 2026-04-20 02:04 | -38.00249 | 149.56984 | 34365 ft | 393 kts | 194° |
| 2026-04-20 02:04 | -38.05506 | 149.55055 | 34359 ft | 393 kts | 194° |
| 2026-04-20 02:05 | -38.10768 | 149.53119 | 34364 ft | 394 kts | 195° |
| 2026-04-20 02:05 | -38.16027 | 149.51167 | 34369 ft | 394 kts | 195° |
| 2026-04-20 02:06 | -38.21293 | 149.49221 | 34370 ft | 394 kts | 194° |
| 2026-04-20 02:06 | -38.26563 | 149.47278 | 34364 ft | 394 kts | 195° |
| 2026-04-20 02:07 | -38.27900 | 149.46784 | 34364 ft | 394 kts | 195° |
| 2026-04-20 02:07 | -38.30392 | 149.45860 | 34364 ft | 394 kts | 195° |
| 2026-04-20 02:08 | -38.35619 | 149.43918 | 34367 ft | 394 kts | 195° |
| 2026-04-20 02:08 | -38.40886 | 149.41956 | 34364 ft | 394 kts | 195° |
| 2026-04-20 02:09 | -38.46144 | 149.40005 | 34367 ft | 394 kts | 195° |
| 2026-04-20 02:09 | -38.51407 | 149.38048 | 34369 ft | 394 kts | 195° |
| 2026-04-20 02:10 | -38.56665 | 149.36077 | 34364 ft | 394 kts | 195° |
| 2026-04-20 02:10 | -38.61929 | 149.34106 | 34366 ft | 394 kts | 195° |
| 2026-04-20 02:11 | -38.67193 | 149.32134 | 34369 ft | 394 kts | 195° |
| 2026-04-20 02:11 | -38.72464 | 149.30159 | 34375 ft | 395 kts | 195° |
| 2026-04-20 02:12 | -38.77733 | 149.28182 | 34376 ft | 395 kts | 195° |
| 2026-04-20 02:12 | -38.83005 | 149.26189 | 34376 ft | 395 kts | 195° |
| 2026-04-20 02:13 | -38.88275 | 149.24208 | 34377 ft | 395 kts | 195° |
| 2026-04-20 02:13 | -38.93540 | 149.22221 | 34378 ft | 394 kts | 195° |
| 2026-04-20 02:14 | -38.98799 | 149.20232 | 34375 ft | 394 kts | 195° |
| 2026-04-20 02:14 | -39.04062 | 149.18241 | 34373 ft | 394 kts | 195° |
| 2026-04-20 02:15 | -39.08436 | 149.16588 | 34376 ft | 394 kts | 195° |
| 2026-04-20 02:15 | -39.13698 | 149.14598 | 34374 ft | 394 kts | 195° |
| 2026-04-20 02:16 | -39.18960 | 149.12601 | 34376 ft | 394 kts | 195° |
| 2026-04-20 02:16 | -39.24222 | 149.10587 | 34380 ft | 394 kts | 195° |
| 2026-04-20 02:17 | -39.29480 | 149.08579 | 34378 ft | 394 kts | 195° |
| 2026-04-20 02:17 | -39.34738 | 149.06574 | 34380 ft | 394 kts | 195° |
| 2026-04-20 02:18 | -39.39992 | 149.04565 | 34381 ft | 394 kts | 195° |
| 2026-04-20 02:18 | -39.45247 | 149.02546 | 34382 ft | 394 kts | 195° |
| 2026-04-20 02:19 | -39.50498 | 149.00537 | 34379 ft | 393 kts | 195° |
| 2026-04-20 02:19 | -39.55747 | 148.98523 | 34380 ft | 393 kts | 195° |
| 2026-04-20 02:20 | -39.60995 | 148.96497 | 34379 ft | 393 kts | 195° |
| 2026-04-20 02:20 | -39.66233 | 148.94471 | 34379 ft | 393 kts | 195° |
| 2026-04-20 02:21 | -39.74102 | 148.91439 | 34381 ft | 393 kts | 195° |
| 2026-04-20 02:22 | -39.79345 | 148.89411 | 34382 ft | 393 kts | 195° |
| 2026-04-20 02:22 | -39.84581 | 148.87375 | 34388 ft | 393 kts | 195° |
| 2026-04-20 02:23 | -39.89822 | 148.85336 | 34389 ft | 393 kts | 195° |
| 2026-04-20 02:23 | -39.95059 | 148.83296 | 34385 ft | 393 kts | 195° |
| 2026-04-20 02:24 | -40.00296 | 148.81252 | 34384 ft | 393 kts | 196° |
| 2026-04-20 02:24 | -40.05531 | 148.79207 | 34384 ft | 393 kts | 196° |
| 2026-04-20 02:25 | -40.10768 | 148.77156 | 34387 ft | 393 kts | 196° |
| 2026-04-20 02:25 | -40.16005 | 148.75106 | 34387 ft | 393 kts | 196° |
| 2026-04-20 02:26 | -40.21244 | 148.73048 | 34386 ft | 393 kts | 196° |
| 2026-04-20 02:26 | -40.26478 | 148.70993 | 34394 ft | 393 kts | 196° |
| 2026-04-20 02:27 | -40.31710 | 148.68939 | 34389 ft | 392 kts | 196° |
| 2026-04-20 02:27 | -40.36941 | 148.66876 | 34389 ft | 393 kts | 196° |
| 2026-04-20 02:28 | -40.42172 | 148.64813 | 34385 ft | 393 kts | 196° |
| 2026-04-20 02:28 | -40.47403 | 148.62741 | 34379 ft | 393 kts | 196° |
| 2026-04-20 02:29 | -40.52632 | 148.60664 | 34385 ft | 393 kts | 197° |
| 2026-04-20 02:29 | -40.57863 | 148.58582 | 34385 ft | 393 kts | 196° |
| 2026-04-20 02:30 | -40.63100 | 148.56510 | 34386 ft | 393 kts | 196° |
| 2026-04-20 02:30 | -40.68335 | 148.54431 | 34389 ft | 393 kts | 197° |
| 2026-04-20 02:31 | -40.73575 | 148.52351 | 34383 ft | 393 kts | 197° |
| 2026-04-20 02:31 | -40.78813 | 148.50258 | 34388 ft | 393 kts | 197° |
| 2026-04-20 02:32 | -40.84047 | 148.48153 | 34388 ft | 393 kts | 197° |
| 2026-04-20 02:32 | -40.89283 | 148.46052 | 34379 ft | 393 kts | 197° |
| 2026-04-20 02:33 | -40.94526 | 148.43943 | 34385 ft | 394 kts | 197° |
| 2026-04-20 02:33 | -40.99772 | 148.41828 | 34013 ft | 394 kts | 197° |
| 2026-04-20 02:33 | -41.02397 | 148.40772 | 33746 ft | 395 kts | 197° |
| 2026-04-20 02:34 | -41.05028 | 148.39716 | 33474 ft | 395 kts | 197° |
| 2026-04-20 02:34 | -41.07659 | 148.38654 | 33212 ft | 395 kts | 197° |
| 2026-04-20 02:34 | -41.10283 | 148.37589 | 32949 ft | 394 kts | 197° |
| 2026-04-20 02:34 | -41.12900 | 148.36530 | 32691 ft | 393 kts | 197° |
| 2026-04-20 02:35 | -41.15514 | 148.35476 | 32429 ft | 391 kts | 197° |
| 2026-04-20 02:35 | -41.18116 | 148.34428 | 32175 ft | 390 kts | 197° |
| 2026-04-20 02:35 | -41.20710 | 148.33379 | 31924 ft | 389 kts | 197° |
| 2026-04-20 02:35 | -41.23292 | 148.32331 | 31674 ft | 388 kts | 197° |
| 2026-04-20 02:36 | -41.25869 | 148.31284 | 31427 ft | 387 kts | 197° |
| 2026-04-20 02:36 | -41.28437 | 148.30240 | 31180 ft | 385 kts | 197° |
| 2026-04-20 02:36 | -41.30999 | 148.29198 | 30935 ft | 384 kts | 197° |
| 2026-04-20 02:36 | -41.33554 | 148.28156 | 30695 ft | 383 kts | 197° |
| 2026-04-20 02:37 | -41.36081 | 148.27043 | 30445 ft | 382 kts | 199° |
| 2026-04-20 02:37 | -41.38577 | 148.25845 | 30172 ft | 381 kts | 200° |
| 2026-04-20 02:37 | -41.41054 | 148.24604 | 29888 ft | 379 kts | 200° |
| 2026-04-20 02:37 | -41.43501 | 148.23365 | 29432 ft | 375 kts | 200° |
| 2026-04-20 02:38 | -41.45933 | 148.22145 | 28933 ft | 371 kts | 200° |
| 2026-04-20 02:38 | -41.48344 | 148.20950 | 28437 ft | 368 kts | 200° |
| 2026-04-20 02:38 | -41.50740 | 148.19771 | 27955 ft | 366 kts | 200° |
| 2026-04-20 02:38 | -41.53125 | 148.18602 | 27470 ft | 364 kts | 200° |
| 2026-04-20 02:39 | -41.55496 | 148.17443 | 27003 ft | 363 kts | 200° |
| 2026-04-20 02:39 | -41.57866 | 148.16286 | 26541 ft | 362 kts | 200° |
| 2026-04-20 02:39 | -41.60236 | 148.15126 | 26095 ft | 361 kts | 200° |
| 2026-04-20 02:39 | -41.62591 | 148.13972 | 25642 ft | 361 kts | 200° |
| 2026-04-20 02:40 | -41.64949 | 148.12811 | 25209 ft | 360 kts | 200° |
| 2026-04-20 02:40 | -41.67298 | 148.11652 | 24774 ft | 360 kts | 200° |
| 2026-04-20 02:40 | -41.69646 | 148.10490 | 24336 ft | 360 kts | 200° |
| 2026-04-20 02:40 | -41.71995 | 148.09329 | 23898 ft | 360 kts | 200° |
| 2026-04-20 02:41 | -41.74343 | 148.08172 | 23385 ft | 359 kts | 201° |
| 2026-04-20 02:41 | -41.76679 | 148.07022 | 22947 ft | 357 kts | 201° |
| 2026-04-20 02:41 | -41.78999 | 148.05874 | 22500 ft | 354 kts | 200° |
| 2026-04-20 02:41 | -41.81307 | 148.04732 | 22042 ft | 353 kts | 201° |
| 2026-04-20 02:42 | -41.83605 | 148.03594 | 21584 ft | 351 kts | 201° |
| 2026-04-20 02:42 | -41.85895 | 148.02460 | 21110 ft | 350 kts | 201° |
| 2026-04-20 02:42 | -41.88173 | 148.01327 | 20643 ft | 348 kts | 201° |
| 2026-04-20 02:42 | -41.90440 | 148.00200 | 20162 ft | 347 kts | 201° |
| 2026-04-20 02:43 | -41.92705 | 147.99076 | 19687 ft | 347 kts | 201° |
| 2026-04-20 02:43 | -41.94965 | 147.97955 | 19208 ft | 346 kts | 202° |
| 2026-04-20 02:43 | -41.97224 | 147.96833 | 18731 ft | 346 kts | 202° |
| 2026-04-20 02:43 | -41.99456 | 147.95725 | 18209 ft | 346 kts | 202° |
| 2026-04-20 02:44 | -42.01707 | 147.94605 | 17722 ft | 344 kts | 202° |
| 2026-04-20 02:44 | -42.03943 | 147.93491 | 17243 ft | 342 kts | 202° |
| 2026-04-20 02:44 | -42.06167 | 147.92382 | 16771 ft | 340 kts | 202° |
| 2026-04-20 02:44 | -42.08381 | 147.91278 | 16290 ft | 338 kts | 202° |
| 2026-04-20 02:45 | -42.10584 | 147.90176 | 15819 ft | 337 kts | 202° |
| 2026-04-20 02:45 | -42.12781 | 147.89078 | 15347 ft | 336 kts | 202° |
| 2026-04-20 02:45 | -42.14970 | 147.87979 | 14876 ft | 335 kts | 202° |
| 2026-04-20 02:45 | -42.17154 | 147.86880 | 14405 ft | 335 kts | 202° |
| 2026-04-20 02:46 | -42.19335 | 147.85785 | 13906 ft | 335 kts | 202° |
| 2026-04-20 02:46 | -42.21512 | 147.84695 | 13423 ft | 333 kts | 202° |
| 2026-04-20 02:46 | -42.23674 | 147.83612 | 12964 ft | 330 kts | 202° |
| 2026-04-20 02:46 | -42.25822 | 147.82534 | 12505 ft | 328 kts | 202° |
| 2026-04-20 02:47 | -42.27958 | 147.81462 | 12048 ft | 327 kts | 202° |
| 2026-04-20 02:47 | -42.30081 | 147.80393 | 11600 ft | 325 kts | 202° |
| 2026-04-20 02:47 | -42.32195 | 147.79327 | 11143 ft | 324 kts | 202° |
| 2026-04-20 02:47 | -42.34290 | 147.78227 | 10699 ft | 322 kts | 207° |
| 2026-04-20 02:48 | -42.36150 | 147.76649 | 10533 ft | 310 kts | 218° |
| 2026-04-20 02:48 | -42.37849 | 147.74937 | 10406 ft | 298 kts | 218° |
| 2026-04-20 02:48 | -42.39477 | 147.73307 | 10020 ft | 286 kts | 218° |
| 2026-04-20 02:48 | -42.41064 | 147.71716 | 9401 ft | 284 kts | 218° |
| 2026-04-20 02:49 | -42.42636 | 147.70139 | 8862 ft | 279 kts | 218° |
| 2026-04-20 02:49 | -42.44185 | 147.68583 | 8365 ft | 276 kts | 218° |
| 2026-04-20 02:49 | -42.45717 | 147.67040 | 7873 ft | 275 kts | 218° |
| 2026-04-20 02:49 | -42.47266 | 147.65476 | 7435 ft | 278 kts | 218° |
| 2026-04-20 02:50 | -42.48802 | 147.63924 | 6927 ft | 273 kts | 218° |
| 2026-04-20 02:50 | -42.50313 | 147.62391 | 6406 ft | 270 kts | 217° |
| 2026-04-20 02:50 | -42.51821 | 147.60863 | 6124 ft | 268 kts | 217° |
| 2026-04-20 02:50 | -42.53282 | 147.59386 | 5976 ft | 255 kts | 217° |
| 2026-04-20 02:51 | -42.54688 | 147.57966 | 5804 ft | 248 kts | 217° |
| 2026-04-20 02:51 | -42.56075 | 147.56563 | 5390 ft | 254 kts | 217° |
| 2026-04-20 02:51 | -42.57509 | 147.55110 | 4978 ft | 256 kts | 217° |
| 2026-04-20 02:51 | -42.58888 | 147.53707 | 4817 ft | 240 kts | 216° |
| 2026-04-20 02:52 | -42.60198 | 147.52376 | 4698 ft | 231 kts | 216° |
| 2026-04-20 02:52 | -42.61454 | 147.51101 | 4602 ft | 223 kts | 216° |
| 2026-04-20 02:52 | -42.62693 | 147.49843 | 4489 ft | 222 kts | 216° |
| 2026-04-20 02:52 | -42.63941 | 147.48599 | 4232 ft | 222 kts | 215° |
| 2026-04-20 02:53 | -42.65182 | 147.47375 | 3975 ft | 219 kts | 215° |
| 2026-04-20 02:53 | -42.66410 | 147.46165 | 3737 ft | 217 kts | 215° |
| 2026-04-20 02:53 | -42.67213 | 147.45374 | 3582 ft | 214 kts | 215° |
| 2026-04-20 02:53 | -42.68412 | 147.44195 | 3338 ft | 211 kts | 215° |
| 2026-04-20 02:54 | -42.69592 | 147.43041 | 3111 ft | 207 kts | 213° |
| 2026-04-20 02:54 | -42.70851 | 147.42121 | 2829 ft | 205 kts | 201° |
| 2026-04-20 02:54 | -42.72639 | 147.41477 | 2500 ft | 192 kts | 186° |
| 2026-04-20 02:54 | -42.73916 | 147.41419 | 2220 ft | 176 kts | 176° |
| 2026-04-20 02:55 | -42.74714 | 147.41545 | 2066 ft | 165 kts | 169° |
| 2026-04-20 02:55 | -42.75779 | 147.41916 | 1874 ft | 150 kts | 161° |
| 2026-04-20 02:55 | -42.76718 | 147.42461 | 1673 ft | 143 kts | 153° |
| 2026-04-20 02:55 | -42.77559 | 147.43160 | 1484 ft | 141 kts | 144° |
| 2026-04-20 02:56 | -42.78306 | 147.43999 | 1298 ft | 140 kts | 137° |
| 2026-04-20 02:56 | -42.79003 | 147.44942 | 1200 ft | 140 kts | 136° |
| 2026-04-20 02:56 | -42.79699 | 147.45874 | 1111 ft | 141 kts | 136° |
| 2026-04-20 02:56 | -42.80384 | 147.46800 | 882 ft | 140 kts | 136° |
| 2026-04-20 02:57 | -42.81076 | 147.47742 | 624 ft | 138 kts | 135° |
| 2026-04-20 02:57 | -42.81732 | 147.48654 | 371 ft | 135 kts | 136° |
| 2026-04-20 02:57 | -42.82409 | 147.49538 | 206 ft | 134 kts | 135° |
| 2026-04-20 02:57 | -42.83061 | 147.50432 | 29 ft | 127 kts | 136° |
| 2026-04-20 02:58 | -42.83555 | 147.51092 | 27 ft | 59 kts | 134° |
| 2026-04-20 02:58 | -42.83706 | 147.51280 | 23 ft | 17 kts | 155° |
| 2026-04-20 02:58 | -42.83806 | 147.51261 | 24 ft | 15 kts | 216° |
| 2026-04-20 02:58 | -42.83862 | 147.51172 | 25 ft | 10 kts | 263° |
| 2026-04-20 02:59 | -42.83820 | 147.51088 | 25 ft | 12 kts | 310° |
| 2026-04-20 02:59 | -42.83756 | 147.51000 | 26 ft | 14 kts | 315° |
| 2026-04-20 02:59 | -42.83690 | 147.50913 | 27 ft | 11 kts | 315° |
| 2026-04-20 02:59 | -42.83631 | 147.50832 | 29 ft | 14 kts | 316° |
| 2026-04-20 03:00 | -42.83569 | 147.50726 | 24 ft | 14 kts | 279° |
| 2026-04-20 03:00 | -42.83598 | 147.50657 | 23 ft | 2 kts | 224° |
| 2026-04-20 03:00 | -42.83620 | 147.50628 | 24 ft | 6 kts | 224° |
| 2026-04-20 03:00 | -42.83651 | 147.50585 | 22 ft | 3 kts | 225° |
| 2026-04-20 03:01 | -42.83660 | 147.50576 | 22 ft | 0 kts | 214° |